Time;durP1;ratioP1;P1;durP2;ratioP2;P2;SDS_P1;SDS_P2;PMS_P1;PMS_P2;Temp;Humidity;BMP_temperature;BMP_pressure;BME280_temperature;BME280_humidity;BME280_pressure;Samples;Min_cycle;Max_cycle;Signal;HPM_P1;HPM_P2
2022/07/06 00:01:21;;;;;;;;;;;;;;;20.19;100.00;99726.72;5054048;28;19924;-38
2022/07/06 00:03:46;;;;;;;;;;;;;;;20.80;100.00;99724.72;5054194;28;19920;-39
2022/07/06 00:06:12;;;;;;;;;;;;;;;21.20;99.45;99716.97;5053665;28;19924;-38
2022/07/06 00:08:37;;;;;;;;;;;;;;;21.17;99.17;99727.66;5052357;28;19927;-39
2022/07/06 00:11:02;;;;;;;;;;;;;;;21.45;97.97;99726.72;5036223;28;19963;-39
2022/07/06 00:13:28;;;;;;;;;;;;;;;21.26;97.54;99719.19;5054414;28;20023;-39
2022/07/06 00:15:53;;;;;;;;;;;;;;;21.11;98.33;99721.00;5052402;28;20441;-38
2022/07/06 00:18:18;;;;;;;;;;;;;;;21.05;99.22;99721.38;5054037;28;19920;-38
2022/07/06 00:20:44;;;;;;;;;;;;;;;20.11;100.00;99731.53;5051095;28;19952;-39
2022/07/06 00:23:09;;;;;;;;;;;;;;;19.88;100.00;99727.69;5051751;28;20349;-39
2022/07/06 00:25:34;;;;;;;;;;;;;;;20.53;100.00;99725.50;5052501;28;19921;-39
2022/07/06 00:27:59;;;;;;;;;;;;;;;20.18;100.00;99727.63;5053663;28;19954;-38
2022/07/06 00:30:25;;;;;;;;;;;;;;;20.93;100.00;99722.19;5054146;28;19916;-38
2022/07/06 00:32:50;;;;;;;;;;;;;;;20.76;100.00;99726.72;5053983;28;19956;-38
2022/07/06 00:35:15;;;;;;;;;;;;;;;20.44;100.00;99732.13;5053501;28;19974;-39
2022/07/06 00:37:41;;;;;;;;;;;;;;;20.86;100.00;99721.72;5053870;28;19970;-39
2022/07/06 00:40:06;;;;;;;;;;;;;;;21.28;100.00;99718.16;5035481;28;20730;-39
2022/07/06 00:42:38;;;;;;;;;;;;;;;21.38;99.78;99722.78;5051993;28;19924;-39
2022/07/06 00:45:04;;;;;;;;;;;;;;;21.34;99.26;99718.69;5052312;28;19924;-38
2022/07/06 00:47:29;;;;;;;;;;;;;;;21.27;100.00;99721.69;5053576;28;19935;-38
2022/07/06 00:52:38;;;;;;;;;;;;;;;20.40;100.00;99741.09;5054851;28;19941;-39
2022/07/06 00:55:04;;;;;;;;;;;;;;;20.25;100.00;99736.78;5052996;28;20373;-39
2022/07/06 00:57:29;;;;;;;;;;;;;;;20.65;100.00;99727.38;5051924;28;19920;-39
2022/07/06 00:59:55;;;;;;;;;;;;;;;19.91;100.00;99738.81;5053641;28;20051;-38
2022/07/06 01:02:22;;;;;;;;;;;;;;;20.12;100.00;99741.09;5053840;28;19924;-39
2022/07/06 01:04:47;;;;;;;;;;;;;;;19.71;100.00;99736.53;5053994;28;20377;-39
2022/07/06 01:07:12;;;;;;;;;;;;;;;20.38;100.00;99735.09;5053610;28;19920;-39
2022/07/06 01:09:38;;;;;;;;;;;;;;;20.33;100.00;99731.94;5049783;28;20297;-38
2022/07/06 01:12:03;;;;;;;;;;;;;;;19.65;100.00;99742.91;5054227;28;19989;-39
2022/07/06 01:14:28;;;;;;;;;;;;;;;19.56;100.00;99744.25;5052381;28;19971;-39
2022/07/06 01:16:54;;;;;;;;;;;;;;;19.65;100.00;99742.91;5052328;28;20013;-38
2022/07/06 01:19:19;;;;;;;;;;;;;;;19.42;100.00;99739.00;5051962;28;20001;-38
2022/07/06 01:21:44;;;;;;;;;;;;;;;19.56;100.00;99739.03;5050044;28;20021;-39
2022/07/06 01:24:09;;;;;;;;;;;;;;;19.46;100.00;99731.84;5054498;28;19978;-38
2022/07/06 01:26:34;;;;;;;;;;;;;;;18.89;100.00;99738.44;5050483;28;19936;-38
2022/07/06 01:29:00;;;;;;;;;;;;;;;19.18;100.00;99736.84;5052335;28;20564;-39
2022/07/06 01:31:25;;;;;;;;;;;;;;;19.33;100.00;99734.28;5053618;28;19916;-39
2022/07/06 01:33:51;;;;;;;;;;;;;;;18.90;100.00;99739.28;5052900;28;20547;-39
2022/07/06 01:36:17;;;;;;;;;;;;;;;18.64;100.00;99738.88;5052902;28;20279;-39
2022/07/06 01:38:49;;;;;;;;;;;;;;;19.53;100.00;99733.16;5051804;28;19970;-39
2022/07/06 01:41:14;;;;;;;;;;;;;;;19.70;100.00;99729.59;5053269;28;19989;-39
2022/07/06 01:43:40;;;;;;;;;;;;;;;19.50;100.00;99739.41;5052658;28;20234;-39
2022/07/06 01:46:05;;;;;;;;;;;;;;;19.51;100.00;99735.84;5053232;28;19924;-39
2022/07/06 01:48:30;;;;;;;;;;;;;;;19.63;100.00;99737.75;5052535;28;19938;-39
2022/07/06 01:50:56;;;;;;;;;;;;;;;19.30;100.00;99737.09;5052849;28;19962;-39
2022/07/06 01:53:21;;;;;;;;;;;;;;;18.73;100.00;99743.63;5051934;28;19921;-39
2022/07/06 01:55:46;;;;;;;;;;;;;;;19.05;100.00;99737.59;5051398;28;20385;-39
2022/07/06 01:58:11;;;;;;;;;;;;;;;18.49;100.00;99737.09;5053223;28;19959;-39
2022/07/06 02:00:36;;;;;;;;;;;;;;;19.08;100.00;99726.97;5049407;28;20130;-39
2022/07/06 02:03:02;;;;;;;;;;;;;;;19.35;100.00;99733.28;5052885;28;19928;-39
2022/07/06 02:05:27;;;;;;;;;;;;;;;19.37;100.00;99730.56;5052058;28;20499;-39
2022/07/06 02:07:52;;;;;;;;;;;;;;;19.40;100.00;99739.06;5051362;28;19924;-39
2022/07/06 02:10:17;;;;;;;;;;;;;;;18.50;100.00;99736.19;5052521;28;19916;-38
2022/07/06 02:12:43;;;;;;;;;;;;;;;19.01;100.00;99718.66;5052428;28;19926;-39
2022/07/06 02:15:08;;;;;;;;;;;;;;;19.35;100.00;99724.59;5052396;28;20261;-39
2022/07/06 02:17:33;;;;;;;;;;;;;;;18.94;100.00;99730.34;5051210;28;19920;-39
2022/07/06 02:19:59;;;;;;;;;;;;;;;19.07;100.00;99726.16;5051326;28;20019;-39
2022/07/06 02:22:24;;;;;;;;;;;;;;;19.51;100.00;99722.78;5052882;28;20042;-39
2022/07/06 02:24:49;;;;;;;;;;;;;;;19.33;100.00;99726.44;5051465;28;20713;-38
2022/07/06 02:27:14;;;;;;;;;;;;;;;19.30;100.00;99731.84;5051800;28;19924;-39
2022/07/06 02:29:40;;;;;;;;;;;;;;;19.62;100.00;99733.47;5051101;28;19925;-39
2022/07/06 02:32:05;;;;;;;;;;;;;;;19.52;100.00;99716.63;5052490;28;19912;-39
2022/07/06 02:34:30;;;;;;;;;;;;;;;19.50;100.00;99728.97;5057173;28;20442;-39
2022/07/06 02:36:55;;;;;;;;;;;;;;;19.96;100.00;99721.06;5055392;28;20023;-39
2022/07/06 02:39:21;;;;;;;;;;;;;;;19.76;100.00;99721.41;5055008;28;19920;-39
2022/07/06 02:41:46;;;;;;;;;;;;;;;20.16;100.00;99717.28;5056151;28;20384;-39
2022/07/06 02:44:11;;;;;;;;;;;;;;;19.33;100.00;99724.66;5056405;28;20293;-39
2022/07/06 02:46:36;;;;;;;;;;;;;;;19.10;100.00;99730.34;5055886;28;19968;-39
2022/07/06 02:49:02;;;;;;;;;;;;;;;19.53;100.00;99726.16;5055743;28;19963;-39
2022/07/06 02:51:27;;;;;;;;;;;;;;;18.90;100.00;99731.44;5052867;28;19974;-38
2022/07/06 02:53:52;;;;;;;;;;;;;;;19.43;100.00;99727.59;5055831;28;19969;-39
2022/07/06 02:56:17;;;;;;;;;;;;;;;18.79;100.00;99732.88;5055266;28;19921;-38
2022/07/06 02:58:42;;;;;;;;;;;;;;;18.27;100.00;99738.22;5055177;28;20806;-39
2022/07/06 03:01:08;;;;;;;;;;;;;;;18.90;100.00;99731.44;5054805;28;20321;-39
2022/07/06 03:03:33;;;;;;;;;;;;;;;18.68;100.00;99735.19;5055501;28;20435;-39
2022/07/06 03:05:58;;;;;;;;;;;;;;;19.07;100.00;99733.97;5055106;28;20003;-39
2022/07/06 03:08:23;;;;;;;;;;;;;;;19.72;100.00;99720.72;5053706;28;20008;-39
2022/07/06 03:10:49;;;;;;;;;;;;;;;19.29;100.00;99725.78;5055574;28;19927;-39
2022/07/06 03:13:14;;;;;;;;;;;;;;;19.22;100.00;99740.94;5054952;28;19974;-39
2022/07/06 03:15:39;;;;;;;;;;;;;;;19.60;100.00;99730.09;5055831;28;19980;-39
2022/07/06 03:18:04;;;;;;;;;;;;;;;20.04;100.00;99734.50;5055517;28;20951;-39
2022/07/06 03:20:30;;;;;;;;;;;;;;;19.96;100.00;99731.53;5055022;28;20031;-39
2022/07/06 03:22:55;;;;;;;;;;;;;;;19.97;100.00;99737.59;5055121;28;19986;-39
2022/07/06 03:25:20;;;;;;;;;;;;;;;19.20;100.00;99745.44;5056444;28;19924;-39
2022/07/06 03:27:45;;;;;;;;;;;;;;;19.46;100.00;99740.50;5054932;28;19920;-39
2022/07/06 03:30:11;;;;;;;;;;;;;;;19.74;100.00;99744.16;5054403;28;19920;-38
2022/07/06 03:32:36;;;;;;;;;;;;;;;19.36;100.00;99741.94;5055673;28;20015;-38
2022/07/06 03:35:01;;;;;;;;;;;;;;;19.48;100.00;99745.63;5054641;28;20902;-39
2022/07/06 03:37:26;;;;;;;;;;;;;;;18.83;100.00;99753.59;5056443;28;20286;-39
2022/07/06 03:39:52;;;;;;;;;;;;;;;19.26;100.00;99753.84;5053606;28;19920;-39
2022/07/06 03:42:17;;;;;;;;;;;;;;;18.95;100.00;99758.13;5054394;28;19966;-39
2022/07/06 03:44:42;;;;;;;;;;;;;;;18.79;100.00;99763.34;5055228;28;19966;-39
2022/07/06 03:47:07;;;;;;;;;;;;;;;18.22;100.00;99763.66;5056071;28;20004;-39
2022/07/06 03:49:33;;;;;;;;;;;;;;;17.91;100.00;99762.63;5054196;28;19974;-39
2022/07/06 03:51:58;;;;;;;;;;;;;;;18.54;100.00;99754.19;5055575;28;19920;-39
2022/07/06 03:54:23;;;;;;;;;;;;;;;18.88;100.00;99749.78;5053408;28;19920;-39
2022/07/06 03:56:48;;;;;;;;;;;;;;;18.95;100.00;99752.91;5055819;28;19927;-39
2022/07/06 03:59:14;;;;;;;;;;;;;;;19.19;100.00;99750.72;5055193;28;20483;-39
2022/07/06 04:01:39;;;;;;;;;;;;;;;19.01;100.00;99752.59;5054233;28;20906;-39
2022/07/06 04:04:04;;;;;;;;;;;;;;;18.58;100.00;99765.28;5054020;28;19920;-39
2022/07/06 04:06:30;;;;;;;;;;;;;;;18.73;100.00;99753.22;5054423;28;19920;-39
2022/07/06 04:08:55;;;;;;;;;;;;;;;18.63;100.00;99750.22;5055811;28;20356;-39
2022/07/06 04:11:20;;;;;;;;;;;;;;;19.42;100.00;99752.06;5054939;28;20034;-39
2022/07/06 04:13:46;;;;;;;;;;;;;;;19.39;100.00;99757.47;5053938;28;19927;-39
2022/07/06 04:16:11;;;;;;;;;;;;;;;19.52;100.00;99761.03;5053140;28;20014;-39
2022/07/06 04:18:36;;;;;;;;;;;;;;;18.94;100.00;99764.28;5055242;28;19920;-39
2022/07/06 04:21:02;;;;;;;;;;;;;;;19.25;100.00;99759.97;5053629;28;20462;-39
2022/07/06 04:23:27;;;;;;;;;;;;;;;19.58;100.00;99763.31;5053683;28;20397;-39
2022/07/06 04:25:53;;;;;;;;;;;;;;;18.95;100.00;99763.34;5055146;28;20332;-39
2022/07/06 04:28:18;;;;;;;;;;;;;;;19.57;100.00;99761.63;5055897;28;19952;-39
2022/07/06 04:30:43;;;;;;;;;;;;;;;19.56;100.00;99765.16;5053215;28;19921;-39
2022/07/06 04:33:08;;;;;;;;;;;;;;;20.20;100.00;99770.22;5051672;28;19925;-39
2022/07/06 04:35:34;;;;;;;;;;;;;;;20.52;100.00;99765.66;5053693;28;19920;-39
2022/07/06 04:37:59;;;;;;;;;;;;;;;20.11;100.00;99776.00;5055224;28;19932;-38
2022/07/06 04:40:24;;;;;;;;;;;;;;;19.73;100.00;99772.09;5053652;28;20384;-39
2022/07/06 04:42:49;;;;;;;;;;;;;;;18.71;100.00;99771.56;5054426;28;20261;-39
2022/07/06 04:45:15;;;;;;;;;;;;;;;18.36;100.00;99769.03;5053331;28;19960;-38
2022/07/06 04:47:40;;;;;;;;;;;;;;;19.02;100.00;99759.47;5054517;28;19920;-39
2022/07/06 04:50:05;;;;;;;;;;;;;;;18.93;100.00;99760.84;5053781;28;19967;-39
2022/07/06 04:52:31;;;;;;;;;;;;;;;18.03;100.00;99770.75;5054121;28;19920;-39
2022/07/06 04:54:56;;;;;;;;;;;;;;;18.93;100.00;99765.19;5052515;28;19921;-39
2022/07/06 04:57:21;;;;;;;;;;;;;;;18.74;100.00;99766.16;5052788;28;19920;-39
2022/07/06 04:59:46;;;;;;;;;;;;;;;19.13;100.00;99764.94;5053220;28;19920;-39
2022/07/06 05:02:12;;;;;;;;;;;;;;;19.08;100.00;99769.59;5054277;28;19963;-39
2022/07/06 05:04:37;;;;;;;;;;;;;;;18.56;100.00;99770.59;5055820;28;19920;-39
2022/07/06 05:07:02;;;;;;;;;;;;;;;18.31;100.00;99768.41;5053607;28;19920;-39
2022/07/06 05:09:27;;;;;;;;;;;;;;;18.89;100.00;99768.91;5055259;28;19928;-38
2022/07/06 05:11:53;;;;;;;;;;;;;;;18.97;100.00;99778.00;5053972;28;19927;-39
2022/07/06 05:14:18;;;;;;;;;;;;;;;19.79;100.00;99770.88;5054537;28;19925;-39
2022/07/06 05:16:43;;;;;;;;;;;;;;;20.16;100.00;99769.56;5053642;28;20388;-39
2022/07/06 05:19:08;;;;;;;;;;;;;;;19.82;100.00;99775.94;5053443;28;20570;-39
2022/07/06 05:21:34;;;;;;;;;;;;;;;19.81;100.00;99771.63;5052541;28;19924;-39
2022/07/06 05:23:59;;;;;;;;;;;;;;;20.27;100.00;99761.06;5053783;28;20160;-39
2022/07/06 05:26:24;;;;;;;;;;;;;;;20.70;100.00;99755.88;5054999;28;19920;-39
2022/07/06 05:28:49;;;;;;;;;;;;;;;20.64;100.00;99764.97;5053686;28;19925;-39
2022/07/06 05:31:15;;;;;;;;;;;;;;;20.28;100.00;99762.78;5053037;28;19920;-39
2022/07/06 05:33:40;;;;;;;;;;;;;;;19.37;100.00;99775.81;5053190;28;19947;-39
2022/07/06 05:36:05;;;;;;;;;;;;;;;20.07;100.00;99770.13;5054033;28;19974;-39
2022/07/06 05:38:30;;;;;;;;;;;;;;;20.98;100.00;99762.00;5054826;28;19926;-39
2022/07/06 05:40:56;;;;;;;;;;;;;;;21.36;100.00;99756.09;5053552;28;19932;-39
2022/07/06 05:43:21;;;;;;;;;;;;;;;21.29;98.58;99753.88;5054147;28;19965;-39
2022/07/06 05:45:46;;;;;;;;;;;;;;;21.72;96.86;99751.09;5050946;28;20871;-39
2022/07/06 05:50:55;;;;;;;;;;;;;;;20.52;100.00;99759.59;5052586;28;19924;-39
2022/07/06 05:53:21;;;;;;;;;;;;;;;21.63;96.12;99749.09;5053165;28;19924;-39
2022/07/06 05:55:46;;;;;;;;;;;;;;;21.69;94.15;99753.94;5052554;28;20050;-39
2022/07/06 05:58:12;;;;;;;;;;;;;;;21.58;96.56;99764.28;5052495;28;19998;-39
2022/07/06 06:00:37;;;;;;;;;;;;;;;21.27;98.19;99766.22;5051452;28;20466;-39
2022/07/06 06:03:02;;;;;;;;;;;;;;;21.66;96.73;99763.78;5051203;28;20063;-39
2022/07/06 06:05:27;;;;;;;;;;;;;;;21.71;95.60;99762.56;5045447;28;19920;-39
2022/07/06 06:07:53;;;;;;;;;;;;;;;22.08;97.59;99765.34;5048825;28;19920;-39
2022/07/06 06:10:19;;;;;;;;;;;;;;;22.70;90.31;99761.13;5051681;28;19955;-39
2022/07/06 06:12:44;;;;;;;;;;;;;;;22.66;93.76;99770.16;5051132;28;19968;-39
2022/07/06 06:15:09;;;;;;;;;;;;;;;21.54;95.45;99775.06;5050340;28;19960;-39
2022/07/06 06:17:35;;;;;;;;;;;;;;;22.95;93.41;99768.94;5050370;28;20429;-39
2022/07/06 06:20:00;;;;;;;;;;;;;;;22.60;92.24;99778.47;5052620;28;20183;-39
2022/07/06 06:22:26;;;;;;;;;;;;;;;22.60;94.63;99781.09;5052059;28;21044;-39
2022/07/06 06:24:51;;;;;;;;;;;;;;;20.21;100.00;99803.31;5052854;28;19974;-39
2022/07/06 06:27:16;;;;;;;;;;;;;;;20.13;100.00;99795.06;5050978;28;19927;-39
2022/07/06 06:29:43;;;;;;;;;;;;;;;20.48;100.00;99796.44;5052342;28;19917;-39
2022/07/06 06:32:09;;;;;;;;;;;;;;;20.75;100.00;99787.00;5050842;28;20499;-39
2022/07/06 06:34:34;;;;;;;;;;;;;;;20.20;100.00;99799.00;5053900;28;19928;-39
2022/07/06 06:36:59;;;;;;;;;;;;;;;20.95;100.00;99788.38;5050366;28;19977;-39
2022/07/06 06:39:25;;;;;;;;;;;;;;;21.58;100.00;99781.81;5052358;28;19986;-39
2022/07/06 06:41:50;;;;;;;;;;;;;;;22.33;98.27;99784.69;5051811;28;21271;-39
2022/07/06 06:44:15;;;;;;;;;;;;;;;22.22;96.79;99787.22;5052953;28;20054;-39
2022/07/06 06:46:41;;;;;;;;;;;;;;;22.83;95.91;99788.22;5052743;28;19923;-39
2022/07/06 06:49:06;;;;;;;;;;;;;;;23.10;90.89;99780.19;5052357;28;19920;-39
2022/07/06 06:51:32;;;;;;;;;;;;;;;23.53;87.12;99787.56;5052762;28;20007;-39
2022/07/06 06:53:57;;;;;;;;;;;;;;;22.66;86.55;99791.19;5051625;28;19920;-39
2022/07/06 06:56:22;;;;;;;;;;;;;;;21.45;95.84;99807.97;5052732;28;20455;-39
2022/07/06 06:58:47;;;;;;;;;;;;;;;22.80;91.77;99796.28;5051654;28;19986;-38
2022/07/06 07:01:13;;;;;;;;;;;;;;;23.37;88.09;99793.13;5051284;28;19971;-39
2022/07/06 07:03:38;;;;;;;;;;;;;;;21.97;92.75;99804.56;5050817;28;19917;-39
2022/07/06 07:06:03;;;;;;;;;;;;;;;20.50;100.00;99816.41;5051520;28;19924;-39
2022/07/06 07:08:29;;;;;;;;;;;;;;;20.66;100.00;99807.59;5050036;28;20141;-39
2022/07/06 07:10:54;;;;;;;;;;;;;;;20.23;100.00;99817.09;5051177;28;20834;-39
2022/07/06 07:13:19;;;;;;;;;;;;;;;21.29;100.00;99813.31;5049747;28;20587;-39
2022/07/06 07:15:44;;;;;;;;;;;;;;;22.17;92.30;99800.59;5052475;28;20008;-39
2022/07/06 07:18:10;;;;;;;;;;;;;;;21.90;95.50;99808.53;5051067;28;19963;-39
2022/07/06 07:20:35;;;;;;;;;;;;;;;21.53;95.42;99808.31;5054713;28;19920;-39
2022/07/06 07:23:00;;;;;;;;;;;;;;;22.04;93.24;99807.63;5055650;28;19946;-39
2022/07/06 07:25:26;;;;;;;;;;;;;;;21.21;96.10;99816.41;5054083;28;20461;-39
2022/07/06 07:27:51;;;;;;;;;;;;;;;20.46;100.00;99828.84;5052682;28;19925;-39
2022/07/06 07:30:16;;;;;;;;;;;;;;;21.15;100.00;99816.78;5053623;28;19964;-39
2022/07/06 07:32:42;;;;;;;;;;;;;;;20.53;100.00;99834.56;5055852;28;20300;-38
2022/07/06 07:35:07;;;;;;;;;;;;;;;21.01;100.00;99819.44;5053600;28;19923;-38
2022/07/06 07:37:32;;;;;;;;;;;;;;;21.24;100.00;99818.84;5052852;28;20041;-39
2022/07/06 07:39:58;;;;;;;;;;;;;;;21.73;100.00;99809.63;5053290;28;20015;-39
2022/07/06 07:42:23;;;;;;;;;;;;;;;21.18;100.00;99821.81;5055854;28;19920;-39
2022/07/06 07:44:48;;;;;;;;;;;;;;;21.74;100.00;99810.47;5054980;28;20308;-39
2022/07/06 07:47:13;;;;;;;;;;;;;;;21.98;99.14;99815.88;5054131;28;19955;-39
2022/07/06 07:49:39;;;;;;;;;;;;;;;21.24;100.00;99825.84;5052778;28;19967;-39
2022/07/06 07:52:04;;;;;;;;;;;;;;;21.87;93.94;99820.06;5055144;28;19917;-39
2022/07/06 07:54:29;;;;;;;;;;;;;;;21.44;95.39;99829.84;5053982;28;19947;-39
2022/07/06 07:56:56;;;;;;;;;;;;;;;21.09;99.06;99828.47;5051075;28;20467;-39
2022/07/06 07:59:22;;;;;;;;;;;;;;;21.11;98.01;99825.78;5051360;28;19920;-39
2022/07/06 08:01:47;;;;;;;;;;;;;;;22.18;94.22;99817.19;5050701;28;20494;-39
2022/07/06 08:04:12;;;;;;;;;;;;;;;21.72;97.21;99816.66;5053482;28;19924;-39
2022/07/06 08:06:37;;;;;;;;;;;;;;;21.35;100.00;99826.03;5052948;28;19916;-39
2022/07/06 08:09:04;;;;;;;;;;;;;;;22.11;95.18;99807.09;5052347;28;19921;-39
2022/07/06 08:11:29;;;;;;;;;;;;;;;22.81;91.57;99805.00;5049419;28;19955;-39
2022/07/06 08:13:55;;;;;;;;;;;;;;;21.85;92.11;99807.97;5052993;28;20282;-39
2022/07/06 08:16:20;;;;;;;;;;;;;;;21.29;92.92;99810.69;5055624;28;19921;-39
2022/07/06 08:18:45;;;;;;;;;;;;;;;21.12;95.73;99819.63;5055314;28;19916;-39
2022/07/06 08:21:11;;;;;;;;;;;;;;;23.44;88.82;99800.56;5053317;28;19956;-39
2022/07/06 08:23:36;;;;;;;;;;;;;;;23.66;85.24;99802.47;5054433;28;20061;-39
2022/07/06 08:26:01;;;;;;;;;;;;;;;23.05;89.32;99815.63;5054735;28;19920;-39
2022/07/06 08:28:27;;;;;;;;;;;;;;;23.27;85.38;99807.88;5055269;28;19918;-39
2022/07/06 08:30:54;;;;;;;;;;;;;;;25.48;75.66;99797.25;5052705;28;19923;-39
2022/07/06 08:33:19;;;;;;;;;;;;;;;22.92;84.89;99811.22;5053864;28;19920;-39
2022/07/06 08:35:44;;;;;;;;;;;;;;;23.17;85.95;99809.47;5054011;28;19942;-39
2022/07/06 08:38:10;;;;;;;;;;;;;;;22.86;89.31;99811.63;5053260;28;20309;-39
2022/07/06 08:40:35;;;;;;;;;;;;;;;22.43;88.38;99814.59;5050980;28;20266;-39
2022/07/06 08:43:01;;;;;;;;;;;;;;;22.90;87.78;99810.47;5052325;28;19924;-39
2022/07/06 08:45:26;;;;;;;;;;;;;;;22.97;85.55;99810.88;5053600;28;20007;-39
2022/07/06 08:47:51;;;;;;;;;;;;;;;24.41;78.86;99807.38;5054072;28;19920;-39
2022/07/06 08:50:17;;;;;;;;;;;;;;;21.83;88.34;99823.00;5051759;28;19927;-39
2022/07/06 08:52:42;;;;;;;;;;;;;;;21.84;88.71;99814.16;5049973;28;20034;-39
2022/07/06 08:55:10;;;;;;;;;;;;;;;22.57;82.63;99812.81;5053576;28;19932;-39
2022/07/06 08:57:35;;;;;;;;;;;;;;;22.35;81.97;99811.66;5051885;28;19930;-39
2022/07/06 09:00:00;;;;;;;;;;;;;;;21.14;88.58;99827.34;5052137;28;20466;-39
2022/07/06 09:02:26;;;;;;;;;;;;;;;21.39;89.47;99816.16;5052548;28;20464;-39
2022/07/06 09:04:53;;;;;;;;;;;;;;;21.09;90.92;99825.84;5052635;28;19920;-40
2022/07/06 09:07:18;;;;;;;;;;;;;;;20.76;91.92;99830.59;5048393;28;19920;-39
2022/07/06 09:09:45;;;;;;;;;;;;;;;21.06;91.05;99822.59;5054043;28;19967;-39
2022/07/06 09:12:13;;;;;;;;;;;;;;;21.07;90.31;99824.28;5054361;28;19931;-39
2022/07/06 09:14:38;;;;;;;;;;;;;;;21.77;90.05;99818.13;5054449;28;19955;-39
2022/07/06 09:17:04;;;;;;;;;;;;;;;21.97;87.87;99819.47;5054737;28;20007;-39
2022/07/06 09:19:33;;;;;;;;;;;;;;;21.76;89.37;99824.31;5053018;28;19970;-39
2022/07/06 09:21:58;;;;;;;;;;;;;;;21.81;88.51;99827.50;5051955;28;20007;-39
2022/07/06 09:24:26;;;;;;;;;;;;;;;22.09;88.65;99822.09;5053760;28;19920;-39
2022/07/06 09:26:51;;;;;;;;;;;;;;;21.78;87.15;99827.66;5055684;28;19924;-39
2022/07/06 09:29:16;;;;;;;;;;;;;;;21.53;85.87;99834.53;5052841;28;19948;-39
2022/07/06 09:31:41;;;;;;;;;;;;;;;21.92;86.85;99832.88;5054633;28;19983;-39
2022/07/06 09:34:09;;;;;;;;;;;;;;;21.95;87.96;99827.41;5054607;28;19963;-39
2022/07/06 09:36:38;;;;;;;;;;;;;;;22.29;87.94;99828.66;5054520;28;19963;-39
2022/07/06 09:39:19;;;;;;;;;;;;;;;21.39;92.42;99834.50;5053200;28;19924;-39
2022/07/06 09:41:45;;;;;;;;;;;;;;;21.99;89.82;99831.53;5053761;28;20613;-39
2022/07/06 09:44:11;;;;;;;;;;;;;;;21.66;89.73;99837.19;5054224;28;19925;-39
2022/07/06 09:46:40;;;;;;;;;;;;;;;22.23;89.00;99831.69;5055727;28;19939;-39
2022/07/06 09:49:06;;;;;;;;;;;;;;;22.28;89.20;99834.00;5054127;28;19920;-39
2022/07/06 09:51:31;;;;;;;;;;;;;;;22.47;88.03;99828.38;5054803;28;19920;-39
2022/07/06 09:53:58;;;;;;;;;;;;;;;22.01;88.60;99832.25;5054353;28;19928;-39
2022/07/06 09:56:35;;;;;;;;;;;;;;;23.17;81.15;99817.38;5052666;28;19947;-39
2022/07/06 09:59:05;;;;;;;;;;;;;;;22.67;84.25;99830.47;5052591;28;19924;-39
2022/07/06 10:01:32;;;;;;;;;;;;;;;22.96;83.19;99831.03;5052189;28;20302;-40
2022/07/06 10:03:57;;;;;;;;;;;;;;;22.96;83.39;99827.56;5051972;28;19969;-39
2022/07/06 10:06:23;;;;;;;;;;;;;;;23.71;80.50;99816.94;5054025;28;20095;-39
2022/07/06 10:08:48;;;;;;;;;;;;;;;23.98;78.00;99823.78;5051832;28;20420;-39
2022/07/06 10:11:14;;;;;;;;;;;;;;;22.72;81.44;99832.78;5052547;28;19920;-39
2022/07/06 10:13:40;;;;;;;;;;;;;;;20.94;87.67;99844.31;5052299;28;19921;-39
2022/07/06 10:16:05;;;;;;;;;;;;;;;22.57;83.93;99825.94;5053700;28;19920;-39
2022/07/06 10:18:30;;;;;;;;;;;;;;;23.64;79.34;99818.34;5054815;28;19916;-39
2022/07/06 10:20:56;;;;;;;;;;;;;;;23.11;80.45;99823.06;5052360;28;19928;-39
2022/07/06 10:23:21;;;;;;;;;;;;;;;21.89;85.07;99827.81;5051642;28;20008;-39
2022/07/06 10:25:46;;;;;;;;;;;;;;;22.54;84.00;99819.13;5052464;28;19958;-39
2022/07/06 10:28:14;;;;;;;;;;;;;;;23.29;80.84;99815.66;5053259;28;20015;-39
2022/07/06 10:30:40;;;;;;;;;;;;;;;24.17;74.10;99816.16;5050752;28;20015;-39
2022/07/06 10:33:05;;;;;;;;;;;;;;;24.39;73.13;99823.28;5054237;28;19920;-40
2022/07/06 10:35:30;;;;;;;;;;;;;;;25.15;64.32;99814.81;5053931;28;19920;-39
2022/07/06 10:38:04;;;;;;;;;;;;;;;25.57;66.55;99807.09;5052895;28;19917;-39
2022/07/06 10:43:17;;;;;;;;;;;;;;;23.67;69.88;99826.00;5051641;28;20769;-40
2022/07/06 10:45:45;;;;;;;;;;;;;;;22.50;73.77;99823.72;5053891;28;19916;-39
2022/07/06 10:48:10;;;;;;;;;;;;;;;22.75;74.78;99822.03;5054198;28;19925;-39
2022/07/06 10:50:36;;;;;;;;;;;;;;;24.02;69.76;99819.97;5052033;28;20535;-39
2022/07/06 10:53:01;;;;;;;;;;;;;;;22.93;69.41;99823.38;5053890;28;20415;-39
2022/07/06 10:55:29;;;;;;;;;;;;;;;23.02;70.49;99821.94;5058090;28;19931;-39
2022/07/06 10:57:55;;;;;;;;;;;;;;;23.14;74.19;99820.22;5058408;28;20733;-39
2022/07/06 11:00:20;;;;;;;;;;;;;;;23.37;69.95;99806.25;5055244;28;20015;-39
2022/07/06 11:02:45;;;;;;;;;;;;;;;23.28;67.92;99812.19;5056219;28;19924;-40
2022/07/06 11:05:12;;;;;;;;;;;;;;;23.62;69.78;99804.47;5056138;28;19920;-39
2022/07/06 11:07:48;;;;;;;;;;;;;;;23.30;73.41;99806.81;5056277;28;19963;-39
2022/07/06 11:10:13;;;;;;;;;;;;;;;22.20;75.91;99815.28;5056922;28;20829;-40
2022/07/06 11:12:38;;;;;;;;;;;;;;;23.42;73.02;99805.09;5055774;28;19920;-39
2022/07/06 11:15:04;;;;;;;;;;;;;;;25.83;64.64;99789.91;5053874;28;19952;-39
2022/07/06 11:17:29;;;;;;;;;;;;;;;28.46;56.35;99779.97;5056988;28;19917;-39
2022/07/06 11:19:58;;;;;;;;;;;;;;;26.40;46.62;99786.97;5055419;28;20317;-39
2022/07/06 11:22:26;;;;;;;;;;;;;;;27.17;48.23;99782.97;5057994;28;19931;-40
2022/07/06 11:24:51;;;;;;;;;;;;;;;27.06;46.61;99782.09;5054100;28;20397;-40
2022/07/06 11:27:17;;;;;;;;;;;;;;;27.68;44.73;99769.50;5057912;28;19988;-39
2022/07/06 11:29:44;;;;;;;;;;;;;;;27.99;46.81;99776.50;5056239;28;19918;-40
2022/07/06 11:32:10;;;;;;;;;;;;;;;25.31;52.09;99793.38;5056551;28;19948;-40
2022/07/06 11:34:37;;;;;;;;;;;;;;;26.66;49.36;99776.81;5058565;28;20015;-39
2022/07/06 11:37:07;;;;;;;;;;;;;;;26.11;47.09;99782.34;5055715;28;20549;-40
2022/07/06 11:39:33;;;;;;;;;;;;;;;27.49;46.13;99785.41;5056235;28;20003;-40
2022/07/06 11:41:59;;;;;;;;;;;;;;;25.28;48.28;99783.91;5056983;28;19957;-40
2022/07/06 11:44:24;;;;;;;;;;;;;;;24.92;48.26;99783.22;5056556;28;19920;-40
2022/07/06 11:46:49;;;;;;;;;;;;;;;25.73;47.17;99781.09;5056147;28;20089;-40
2022/07/06 11:49:15;;;;;;;;;;;;;;;25.10;47.02;99788.00;5056681;28;19913;-40
2022/07/06 11:51:41;;;;;;;;;;;;;;;25.66;50.26;99777.31;5056040;28;19921;-39
2022/07/06 11:54:10;;;;;;;;;;;;;;;25.01;53.11;99787.75;5055163;28;19966;-39
2022/07/06 11:56:35;;;;;;;;;;;;;;;24.47;56.30;99793.75;5055688;28;20018;-40
2022/07/06 11:59:01;;;;;;;;;;;;;;;24.16;54.88;99790.81;5055972;28;19920;-40
2022/07/06 12:01:27;;;;;;;;;;;;;;;24.45;55.73;99782.50;5056447;28;20012;-39
2022/07/06 12:03:53;;;;;;;;;;;;;;;24.37;52.97;99784.88;5056261;28;19953;-39
2022/07/06 12:06:19;;;;;;;;;;;;;;;24.35;54.60;99781.50;5053513;28;19920;-39
2022/07/06 12:08:48;;;;;;;;;;;;;;;23.56;56.64;99786.50;5053019;28;19920;-39
2022/07/06 12:11:32;;;;;;;;;;;;;;;23.49;57.67;99785.28;5053822;28;20262;-39
2022/07/06 12:13:59;;;;;;;;;;;;;;;23.31;59.99;99783.06;5056324;28;19956;-39
2022/07/06 12:16:33;;;;;;;;;;;;;;;24.59;56.03;99777.03;5052921;28;19920;-39
2022/07/06 12:18:58;;;;;;;;;;;;;;;25.55;58.71;99769.44;5054887;28;19912;-39
2022/07/06 12:21:23;;;;;;;;;;;;;;;26.13;50.18;99759.31;5055673;28;19966;-40
2022/07/06 12:23:50;;;;;;;;;;;;;;;27.44;46.44;99751.44;5053464;28;20869;-39
2022/07/06 12:26:15;;;;;;;;;;;;;;;26.38;48.42;99749.28;5054918;28;20405;-40
2022/07/06 12:28:41;;;;;;;;;;;;;;;26.81;47.27;99751.72;5053261;28;19931;-40
2022/07/06 12:31:07;;;;;;;;;;;;;;;26.48;46.64;99748.38;5053142;28;19923;-40
2022/07/06 12:33:32;;;;;;;;;;;;;;;26.07;46.08;99738.72;5054934;28;20446;-39
2022/07/06 12:36:07;;;;;;;;;;;;;;;26.55;46.45;99745.22;5054009;28;19927;-40
2022/07/06 12:38:33;;;;;;;;;;;;;;;26.45;45.59;99737.22;5053557;28;19943;-39
2022/07/06 12:40:58;;;;;;;;;;;;;;;25.29;48.83;99738.09;5052771;28;19921;-40
2022/07/06 12:43:40;;;;;;;;;;;;;;;25.33;46.20;99736.91;5054357;28;20394;-39